sensor_id;sensor_type;location;lat;lon;timestamp;pressure;altitude;pressure_sealevel;temperature;humidity
12536;BME280;6334;48.696;2.114;2022-11-13T00:02:57;100678.72;;;11.83;100.00
12536;BME280;6334;48.696;2.114;2022-11-13T00:05:59;100674.57;;;11.75;100.00
12536;BME280;6334;48.696;2.114;2022-11-13T00:08:56;100676.19;;;11.74;100.00
12536;BME280;6334;48.696;2.114;2022-11-13T00:11:54;100673.58;;;11.75;100.00
12536;BME280;6334;48.696;2.114;2022-11-13T00:14:53;100673.80;;;11.85;100.00
12536;BME280;6334;48.696;2.114;2022-11-13T00:17:51;100673.18;;;11.69;100.00
12536;BME280;6334;48.696;2.114;2022-11-13T00:20:51;100669.15;;;11.87;100.00
12536;BME280;6334;48.696;2.114;2022-11-13T00:23:49;100590.61;;;11.28;100.00
12536;BME280;6334;48.696;2.114;2022-11-13T00:26:47;100661.13;;;11.59;100.00
12536;BME280;6334;48.696;2.114;2022-11-13T00:29:46;100660.19;;;11.56;100.00
12536;BME280;6334;48.696;2.114;2022-11-13T00:32:44;100660.33;;;11.41;100.00
12536;BME280;6334;48.696;2.114;2022-11-13T00:35:42;100655.47;;;11.65;100.00
12536;BME280;6334;48.696;2.114;2022-11-13T00:38:41;100646.27;;;11.79;100.00
12536;BME280;6334;48.696;2.114;2022-11-13T00:41:39;100644.49;;;11.65;100.00
12536;BME280;6334;48.696;2.114;2022-11-13T00:44:38;100643.00;;;11.69;100.00
12536;BME280;6334;48.696;2.114;2022-11-13T00:47:36;100542.49;;;11.09;100.00
12536;BME280;6334;48.696;2.114;2022-11-13T00:50:35;100636.13;;;11.81;100.00
12536;BME280;6334;48.696;2.114;2022-11-13T00:53:44;100624.67;;;11.81;100.00
12536;BME280;6334;48.696;2.114;2022-11-13T00:56:42;100627.64;;;11.85;100.00
12536;BME280;6334;48.696;2.114;2022-11-13T00:59:51;100620.23;;;11.66;100.00
12536;BME280;6334;48.696;2.114;2022-11-13T01:02:49;100618.25;;;11.39;100.00
12536;BME280;6334;48.696;2.114;2022-11-13T01:05:47;100617.79;;;11.71;100.00
12536;BME280;6334;48.696;2.114;2022-11-13T01:08:46;100614.58;;;11.69;100.00
12536;BME280;6334;48.696;2.114;2022-11-13T01:12:04;100599.97;;;11.59;100.00
12536;BME280;6334;48.696;2.114;2022-11-13T01:15:02;100598.61;;;11.80;100.00
12536;BME280;6334;48.696;2.114;2022-11-13T01:18:06;100592.95;;;11.54;100.00
12536;BME280;6334;48.696;2.114;2022-11-13T01:21:04;100583.77;;;11.21;100.00
12536;BME280;6334;48.696;2.114;2022-11-13T01:24:02;100579.87;;;11.15;100.00
12536;BME280;6334;48.696;2.114;2022-11-13T01:27:00;100552.67;;;11.18;100.00
12536;BME280;6334;48.696;2.114;2022-11-13T01:29:58;100532.95;;;11.03;100.00
12536;BME280;6334;48.696;2.114;2022-11-13T01:32:57;100569.86;;;11.48;100.00
12536;BME280;6334;48.696;2.114;2022-11-13T01:36:17;100565.02;;;11.24;100.00
12536;BME280;6334;48.696;2.114;2022-11-13T01:39:14;100570.79;;;10.62;100.00
12536;BME280;6334;48.696;2.114;2022-11-13T01:42:12;100565.53;;;11.03;100.00
12536;BME280;6334;48.696;2.114;2022-11-13T01:48:33;100550.83;;;10.94;100.00
12536;BME280;6334;48.696;2.114;2022-11-13T01:51:46;100516.19;;;10.60;100.00
12536;BME280;6334;48.696;2.114;2022-11-13T01:54:45;100549.88;;;11.26;100.00
12536;BME280;6334;48.696;2.114;2022-11-13T01:57:41;100552.52;;;10.87;100.00
12536;BME280;6334;48.696;2.114;2022-11-13T02:00:41;100543.39;;;11.23;100.00
12536;BME280;6334;48.696;2.114;2022-11-13T02:03:45;100549.60;;;10.57;100.00
12536;BME280;6334;48.696;2.114;2022-11-13T02:09:44;100537.96;;;10.80;100.00
12536;BME280;6334;48.696;2.114;2022-11-13T02:12:42;100530.84;;;11.11;100.00
12536;BME280;6334;48.696;2.114;2022-11-13T02:15:40;100529.77;;;10.77;100.00
12536;BME280;6334;48.696;2.114;2022-11-13T02:18:41;100524.68;;;10.79;100.00
12536;BME280;6334;48.696;2.114;2022-11-13T02:24:50;100520.27;;;10.95;100.00
12536;BME280;6334;48.696;2.114;2022-11-13T02:27:49;100524.91;;;11.06;100.00
12536;BME280;6334;48.696;2.114;2022-11-13T02:30:47;100516.89;;;10.55;100.00
12536;BME280;6334;48.696;2.114;2022-11-13T02:33:47;100520.23;;;10.79;100.00
12536;BME280;6334;48.696;2.114;2022-11-13T02:36:45;100520.35;;;10.69;100.00
12536;BME280;6334;48.696;2.114;2022-11-13T02:40:35;100520.56;;;10.74;100.00
12536;BME280;6334;48.696;2.114;2022-11-13T02:43:34;100520.87;;;10.95;100.00
12536;BME280;6334;48.696;2.114;2022-11-13T02:47:02;100509.77;;;10.92;100.00
12536;BME280;6334;48.696;2.114;2022-11-13T02:50:04;100523.89;;;10.67;100.00
12536;BME280;6334;48.696;2.114;2022-11-13T02:53:02;100523.11;;;10.61;100.00
12536;BME280;6334;48.696;2.114;2022-11-13T02:56:07;100518.30;;;10.71;100.00
12536;BME280;6334;48.696;2.114;2022-11-13T02:59:26;100519.37;;;10.42;100.00
12536;BME280;6334;48.696;2.114;2022-11-13T03:02:30;100519.44;;;10.78;100.00
12536;BME280;6334;48.696;2.114;2022-11-13T03:05:28;100516.53;;;10.92;100.00
12536;BME280;6334;48.696;2.114;2022-11-13T03:08:27;100509.82;;;10.89;100.00
12536;BME280;6334;48.696;2.114;2022-11-13T03:11:26;100514.27;;;10.96;100.00
12536;BME280;6334;48.696;2.114;2022-11-13T03:14:25;100511.09;;;11.00;100.00
12536;BME280;6334;48.696;2.114;2022-11-13T03:17:25;100511.11;;;10.73;100.00
12536;BME280;6334;48.696;2.114;2022-11-13T03:20:23;100508.92;;;10.89;100.00
12536;BME280;6334;48.696;2.114;2022-11-13T03:23:41;100508.94;;;10.64;100.00
12536;BME280;6334;48.696;2.114;2022-11-13T03:29:51;100512.31;;;10.58;100.00
12536;BME280;6334;48.696;2.114;2022-11-13T03:32:55;100502.59;;;10.78;100.00
12536;BME280;6334;48.696;2.114;2022-11-13T03:35:54;100503.66;;;10.81;100.00
12536;BME280;6334;48.696;2.114;2022-11-13T03:38:52;100497.46;;;10.61;100.00
12536;BME280;6334;48.696;2.114;2022-11-13T03:41:50;100493.27;;;10.87;100.00
12536;BME280;6334;48.696;2.114;2022-11-13T03:44:55;100493.41;;;10.60;100.00
12536;BME280;6334;48.696;2.114;2022-11-13T03:47:53;100493.37;;;10.83;100.00
12536;BME280;6334;48.696;2.114;2022-11-13T03:50:52;100489.67;;;10.85;100.00
12536;BME280;6334;48.696;2.114;2022-11-13T03:53:49;100488.34;;;11.02;100.00
12536;BME280;6334;48.696;2.114;2022-11-13T03:56:47;100491.03;;;10.86;100.00
12536;BME280;6334;48.696;2.114;2022-11-13T03:59:46;100479.88;;;10.93;100.00
12536;BME280;6334;48.696;2.114;2022-11-13T04:02:45;100484.80;;;10.77;100.00
12536;BME280;6334;48.696;2.114;2022-11-13T04:05:43;100481.33;;;11.02;100.00
12536;BME280;6334;48.696;2.114;2022-11-13T04:08:43;100482.17;;;10.83;100.00
12536;BME280;6334;48.696;2.114;2022-11-13T04:11:41;100480.35;;;11.08;100.00
12536;BME280;6334;48.696;2.114;2022-11-13T04:14:40;100478.47;;;10.93;100.00
12536;BME280;6334;48.696;2.114;2022-11-13T04:17:39;100476.89;;;10.98;100.00
12536;BME280;6334;48.696;2.114;2022-11-13T04:20:37;100479.79;;;10.89;100.00
12536;BME280;6334;48.696;2.114;2022-11-13T04:23:35;100469.81;;;11.14;100.00
12536;BME280;6334;48.696;2.114;2022-11-13T04:26:34;100468.30;;;10.86;100.00
12536;BME280;6334;48.696;2.114;2022-11-13T04:29:32;100463.81;;;10.93;100.00
12536;BME280;6334;48.696;2.114;2022-11-13T04:32:32;100460.63;;;10.96;100.00
12536;BME280;6334;48.696;2.114;2022-11-13T04:35:30;100455.07;;;11.22;100.00
12536;BME280;6334;48.696;2.114;2022-11-13T04:38:40;100453.72;;;11.12;100.00
12536;BME280;6334;48.696;2.114;2022-11-13T04:41:39;100465.58;;;10.97;100.00
12536;BME280;6334;48.696;2.114;2022-11-13T04:44:56;100456.50;;;10.76;100.00
12536;BME280;6334;48.696;2.114;2022-11-13T04:48:04;100451.03;;;10.88;100.00
12536;BME280;6334;48.696;2.114;2022-11-13T04:51:02;100455.27;;;10.57;100.00
12536;BME280;6334;48.696;2.114;2022-11-13T04:54:15;100450.87;;;10.56;100.00
12536;BME280;6334;48.696;2.114;2022-11-13T04:57:25;100459.80;;;10.38;100.00
12536;BME280;6334;48.696;2.114;2022-11-13T05:00:25;100460.14;;;10.36;100.00
12536;BME280;6334;48.696;2.114;2022-11-13T05:03:23;100449.97;;;10.62;100.00
12536;BME280;6334;48.696;2.114;2022-11-13T05:06:22;100452.22;;;10.38;100.00
12536;BME280;6334;48.696;2.114;2022-11-13T05:09:20;100453.67;;;10.64;100.00
12536;BME280;6334;48.696;2.114;2022-11-13T05:12:19;100456.33;;;10.44;100.00
12536;BME280;6334;48.696;2.114;2022-11-13T05:15:18;100456.92;;;10.40;100.00
12536;BME280;6334;48.696;2.114;2022-11-13T05:18:16;100457.94;;;10.23;100.00
12536;BME280;6334;48.696;2.114;2022-11-13T05:21:14;100445.55;;;10.62;100.00
12536;BME280;6334;48.696;2.114;2022-11-13T05:24:12;100453.06;;;10.36;100.00
12536;BME280;6334;48.696;2.114;2022-11-13T05:27:10;100450.17;;;10.33;100.00
12536;BME280;6334;48.696;2.114;2022-11-13T05:30:09;100443.38;;;10.39;100.00
12536;BME280;6334;48.696;2.114;2022-11-13T05:33:07;100441.45;;;10.55;100.00
12536;BME280;6334;48.696;2.114;2022-11-13T05:36:06;100444.26;;;10.60;100.00
12536;BME280;6334;48.696;2.114;2022-11-13T05:39:25;100366.73;;;10.00;100.00
12536;BME280;6334;48.696;2.114;2022-11-13T05:42:23;100429.30;;;10.21;100.00
12536;BME280;6334;48.696;2.114;2022-11-13T05:45:22;100431.15;;;10.05;100.00
12536;BME280;6334;48.696;2.114;2022-11-13T05:48:20;100425.73;;;10.34;100.00
12536;BME280;6334;48.696;2.114;2022-11-13T05:51:19;100423.21;;;10.31;100.00
12536;BME280;6334;48.696;2.114;2022-11-13T05:54:17;100426.96;;;10.24;100.00
12536;BME280;6334;48.696;2.114;2022-11-13T06:00:37;100406.91;;;10.30;100.00
12536;BME280;6334;48.696;2.114;2022-11-13T06:03:46;100403.81;;;9.80;100.00
12536;BME280;6334;48.696;2.114;2022-11-13T06:06:45;100390.13;;;10.26;100.00
12536;BME280;6334;48.696;2.114;2022-11-13T06:09:51;100390.92;;;10.38;100.00
12536;BME280;6334;48.696;2.114;2022-11-13T06:13:00;100381.62;;;10.62;100.00
12536;BME280;6334;48.696;2.114;2022-11-13T06:16:01;100376.28;;;10.64;100.00
12536;BME280;6334;48.696;2.114;2022-11-13T06:19:00;100374.92;;;10.29;100.00
12536;BME280;6334;48.696;2.114;2022-11-13T06:21:57;100370.65;;;10.50;100.00
12536;BME280;6334;48.696;2.114;2022-11-13T06:24:55;100382.34;;;10.35;100.00
12536;BME280;6334;48.696;2.114;2022-11-13T06:27:55;100377.84;;;10.71;100.00
12536;BME280;6334;48.696;2.114;2022-11-13T06:30:53;100375.92;;;10.74;100.00
12536;BME280;6334;48.696;2.114;2022-11-13T06:33:54;100374.64;;;10.60;100.00
12536;BME280;6334;48.696;2.114;2022-11-13T06:37:12;100331.50;;;10.57;100.00
12536;BME280;6334;48.696;2.114;2022-11-13T06:40:20;100338.63;;;10.55;100.00
12536;BME280;6334;48.696;2.114;2022-11-13T06:43:18;100366.86;;;10.62;100.00
12536;BME280;6334;48.696;2.114;2022-11-13T06:46:17;100369.31;;;10.31;100.00
12536;BME280;6334;48.696;2.114;2022-11-13T06:49:14;100371.85;;;10.40;100.00
12536;BME280;6334;48.696;2.114;2022-11-13T06:52:14;100369.98;;;10.36;100.00
12536;BME280;6334;48.696;2.114;2022-11-13T06:55:20;100375.05;;;10.53;100.00
12536;BME280;6334;48.696;2.114;2022-11-13T06:58:19;100374.31;;;10.40;100.00
12536;BME280;6334;48.696;2.114;2022-11-13T07:01:19;100374.88;;;10.27;100.00
12536;BME280;6334;48.696;2.114;2022-11-13T07:04:16;100369.89;;;10.59;100.00
12536;BME280;6334;48.696;2.114;2022-11-13T07:07:15;100372.84;;;10.28;100.00
12536;BME280;6334;48.696;2.114;2022-11-13T07:10:14;100384.67;;;10.51;100.00
12536;BME280;6334;48.696;2.114;2022-11-13T07:13:13;100378.74;;;10.15;100.00
12536;BME280;6334;48.696;2.114;2022-11-13T07:16:41;100383.27;;;10.52;100.00
12536;BME280;6334;48.696;2.114;2022-11-13T07:19:39;100383.20;;;10.23;100.00
12536;BME280;6334;48.696;2.114;2022-11-13T07:22:38;100381.55;;;10.70;100.00
12536;BME280;6334;48.696;2.114;2022-11-13T07:25:36;100391.95;;;10.42;100.00
12536;BME280;6334;48.696;2.114;2022-11-13T07:28:34;100375.64;;;10.71;100.00
12536;BME280;6334;48.696;2.114;2022-11-13T07:31:33;100372.81;;;10.82;100.00
12536;BME280;6334;48.696;2.114;2022-11-13T07:34:32;100368.69;;;10.08;100.00
12536;BME280;6334;48.696;2.114;2022-11-13T07:37:30;100371.42;;;10.39;100.00
12536;BME280;6334;48.696;2.114;2022-11-13T07:40:28;100364.59;;;10.75;100.00
12536;BME280;6334;48.696;2.114;2022-11-13T07:43:36;100358.67;;;10.91;100.00
12536;BME280;6334;48.696;2.114;2022-11-13T07:46:35;100359.45;;;10.90;100.00
12536;BME280;6334;48.696;2.114;2022-11-13T07:49:33;100364.30;;;10.69;100.00
12536;BME280;6334;48.696;2.114;2022-11-13T07:52:32;100314.78;;;10.38;100.00
12536;BME280;6334;48.696;2.114;2022-11-13T07:55:33;100356.52;;;10.62;100.00
12536;BME280;6334;48.696;2.114;2022-11-13T07:58:30;100350.26;;;10.48;100.00
12536;BME280;6334;48.696;2.114;2022-11-13T08:02:03;100347.08;;;10.80;100.00
12536;BME280;6334;48.696;2.114;2022-11-13T08:05:02;100348.64;;;10.47;100.00
12536;BME280;6334;48.696;2.114;2022-11-13T08:08:10;100340.89;;;10.45;100.00
12536;BME280;6334;48.696;2.114;2022-11-13T08:11:06;100313.68;;;10.55;100.00
12536;BME280;6334;48.696;2.114;2022-11-13T08:14:04;100335.73;;;10.28;100.00
12536;BME280;6334;48.696;2.114;2022-11-13T08:17:03;100334.81;;;10.51;100.00
12536;BME280;6334;48.696;2.114;2022-11-13T08:20:02;100328.03;;;10.62;100.00
12536;BME280;6334;48.696;2.114;2022-11-13T08:23:00;100323.77;;;10.44;100.00
12536;BME280;6334;48.696;2.114;2022-11-13T08:26:01;100318.81;;;10.88;100.00
12536;BME280;6334;48.696;2.114;2022-11-13T08:28:57;100323.08;;;10.99;100.00
12536;BME280;6334;48.696;2.114;2022-11-13T08:31:56;100323.98;;;10.28;100.00
12536;BME280;6334;48.696;2.114;2022-11-13T08:34:54;100313.59;;;10.53;100.00
12536;BME280;6334;48.696;2.114;2022-11-13T08:38:06;100308.81;;;10.47;100.00
12536;BME280;6334;48.696;2.114;2022-11-13T08:41:04;100311.44;;;10.45;100.00
12536;BME280;6334;48.696;2.114;2022-11-13T08:44:02;100306.61;;;10.33;100.00
12536;BME280;6334;48.696;2.114;2022-11-13T08:47:00;100308.89;;;10.69;100.00
12536;BME280;6334;48.696;2.114;2022-11-13T08:50:08;100307.47;;;10.80;100.00
12536;BME280;6334;48.696;2.114;2022-11-13T08:53:11;100307.89;;;10.85;100.00
12536;BME280;6334;48.696;2.114;2022-11-13T08:56:09;100308.48;;;11.16;100.00
12536;BME280;6334;48.696;2.114;2022-11-13T08:59:08;100230.87;;;10.69;100.00
12536;BME280;6334;48.696;2.114;2022-11-13T09:02:14;100312.03;;;10.55;100.00
12536;BME280;6334;48.696;2.114;2022-11-13T09:05:13;100317.12;;;10.95;100.00
12536;BME280;6334;48.696;2.114;2022-11-13T09:08:12;100313.22;;;10.98;100.00
12536;BME280;6334;48.696;2.114;2022-11-13T09:11:10;100320.47;;;10.57;100.00
12536;BME280;6334;48.696;2.114;2022-11-13T09:14:08;100319.67;;;10.66;100.00
12536;BME280;6334;48.696;2.114;2022-11-13T09:17:06;100317.17;;;10.57;100.00
12536;BME280;6334;48.696;2.114;2022-11-13T09:20:07;100315.03;;;11.06;100.00
12536;BME280;6334;48.696;2.114;2022-11-13T09:23:05;100318.32;;;10.66;100.00
12536;BME280;6334;48.696;2.114;2022-11-13T09:26:03;100310.73;;;10.94;100.00
12536;BME280;6334;48.696;2.114;2022-11-13T09:29:03;100315.67;;;10.74;100.00
12536;BME280;6334;48.696;2.114;2022-11-13T09:32:01;100307.77;;;10.68;100.00
12536;BME280;6334;48.696;2.114;2022-11-13T09:35:01;100306.28;;;10.68;100.00
12536;BME280;6334;48.696;2.114;2022-11-13T09:38:00;100299.83;;;11.09;100.00
12536;BME280;6334;48.696;2.114;2022-11-13T09:44:02;100288.40;;;11.29;100.00
12536;BME280;6334;48.696;2.114;2022-11-13T09:47:45;100287.05;;;11.01;100.00
12536;BME280;6334;48.696;2.114;2022-11-13T09:50:02;100277.20;;;10.93;100.00
12536;BME280;6334;48.696;2.114;2022-11-13T09:53:05;100277.11;;;11.11;100.00
12536;BME280;6334;48.696;2.114;2022-11-13T09:56:13;100270.96;;;11.40;100.00
12536;BME280;6334;48.696;2.114;2022-11-13T09:59:18;100279.28;;;10.86;100.00
12536;BME280;6334;48.696;2.114;2022-11-13T10:11:42;100263.08;;;10.65;100.00
12536;BME280;6334;48.696;2.114;2022-11-13T10:14:43;100259.02;;;11.34;100.00
12536;BME280;6334;48.696;2.114;2022-11-13T10:17:47;100260.67;;;11.12;100.00
12536;BME280;6334;48.696;2.114;2022-11-13T10:20:42;100262.80;;;11.64;100.00
12536;BME280;6334;48.696;2.114;2022-11-13T10:23:38;100262.38;;;11.82;100.00
12536;BME280;6334;48.696;2.114;2022-11-13T10:26:36;100264.89;;;11.39;100.00
12536;BME280;6334;48.696;2.114;2022-11-13T10:29:36;100264.77;;;11.39;100.00
12536;BME280;6334;48.696;2.114;2022-11-13T10:32:34;100259.00;;;11.40;100.00
12536;BME280;6334;48.696;2.114;2022-11-13T10:35:41;100252.50;;;11.21;100.00
12536;BME280;6334;48.696;2.114;2022-11-13T10:38:38;100254.42;;;11.28;100.00
12536;BME280;6334;48.696;2.114;2022-11-13T10:41:55;100247.24;;;11.05;100.00
12536;BME280;6334;48.696;2.114;2022-11-13T10:44:33;100240.30;;;11.32;100.00
12536;BME280;6334;48.696;2.114;2022-11-13T10:47:32;100234.85;;;10.94;100.00
12536;BME280;6334;48.696;2.114;2022-11-13T10:50:35;100226.76;;;11.65;100.00
12536;BME280;6334;48.696;2.114;2022-11-13T10:53:40;100230.61;;;11.32;100.00
12536;BME280;6334;48.696;2.114;2022-11-13T10:56:36;100224.27;;;11.43;100.00
12536;BME280;6334;48.696;2.114;2022-11-13T10:59:37;100132.95;;;10.77;100.00
12536;BME280;6334;48.696;2.114;2022-11-13T11:02:34;100220.16;;;11.58;100.00
12536;BME280;6334;48.696;2.114;2022-11-13T11:05:35;100216.90;;;11.16;100.00
12536;BME280;6334;48.696;2.114;2022-11-13T11:08:34;100212.70;;;11.61;100.00
12536;BME280;6334;48.696;2.114;2022-11-13T11:11:32;100208.84;;;11.54;100.00
12536;BME280;6334;48.696;2.114;2022-11-13T11:17:59;100198.77;;;11.53;100.00
12536;BME280;6334;48.696;2.114;2022-11-13T11:21:10;100196.31;;;11.92;100.00
12536;BME280;6334;48.696;2.114;2022-11-13T11:24:48;100193.84;;;11.86;100.00
12536;BME280;6334;48.696;2.114;2022-11-13T11:27:20;100195.62;;;12.15;100.00
12536;BME280;6334;48.696;2.114;2022-11-13T11:31:19;100189.87;;;11.97;100.00
12536;BME280;6334;48.696;2.114;2022-11-13T11:34:24;100179.20;;;12.21;100.00
12536;BME280;6334;48.696;2.114;2022-11-13T11:37:27;100175.87;;;12.32;100.00
12536;BME280;6334;48.696;2.114;2022-11-13T11:40:39;100167.27;;;12.38;100.00
12536;BME280;6334;48.696;2.114;2022-11-13T11:44:28;100165.17;;;12.44;100.00
12536;BME280;6334;48.696;2.114;2022-11-13T11:47:31;100164.55;;;12.50;100.00
12536;BME280;6334;48.696;2.114;2022-11-13T11:50:35;100155.78;;;12.46;100.00
12536;BME280;6334;48.696;2.114;2022-11-13T11:53:45;100149.29;;;12.51;100.00
12536;BME280;6334;48.696;2.114;2022-11-13T11:56:48;100152.93;;;12.33;100.00
12536;BME280;6334;48.696;2.114;2022-11-13T11:59:54;100154.53;;;12.46;100.00
12536;BME280;6334;48.696;2.114;2022-11-13T12:06:16;100145.79;;;12.66;100.00
12536;BME280;6334;48.696;2.114;2022-11-13T12:09:27;100142.56;;;12.43;100.00
12536;BME280;6334;48.696;2.114;2022-11-13T12:13:24;100131.42;;;12.66;100.00
12536;BME280;6334;48.696;2.114;2022-11-13T12:16:31;100130.64;;;12.51;100.00
12536;BME280;6334;48.696;2.114;2022-11-13T12:23:29;100123.37;;;13.04;100.00
12536;BME280;6334;48.696;2.114;2022-11-13T12:37:35;100089.16;;;13.09;100.00
12536;BME280;6334;48.696;2.114;2022-11-13T12:41:13;99918.77;;;11.95;100.00
12536;BME280;6334;48.696;2.114;2022-11-13T12:45:07;100082.48;;;13.23;100.00
12536;BME280;6334;48.696;2.114;2022-11-13T12:48:18;100078.98;;;13.22;100.00
12536;BME280;6334;48.696;2.114;2022-11-13T12:51:16;100077.69;;;13.27;100.00
12536;BME280;6334;48.696;2.114;2022-11-13T12:54:24;100095.70;;;13.18;100.00
12536;BME280;6334;48.696;2.114;2022-11-13T12:57:25;100075.89;;;13.16;100.00
12536;BME280;6334;48.696;2.114;2022-11-13T13:00:24;100070.37;;;13.25;100.00
12536;BME280;6334;48.696;2.114;2022-11-13T13:13:19;100060.92;;;13.28;100.00
12536;BME280;6334;48.696;2.114;2022-11-13T13:16:26;100059.95;;;13.44;100.00
12536;BME280;6334;48.696;2.114;2022-11-13T13:19:28;100056.86;;;13.31;100.00
12536;BME280;6334;48.696;2.114;2022-11-13T13:22:35;100054.28;;;13.23;100.00
12536;BME280;6334;48.696;2.114;2022-11-13T13:25:34;100053.98;;;13.16;100.00
12536;BME280;6334;48.696;2.114;2022-11-13T13:28:36;100046.89;;;13.44;100.00
12536;BME280;6334;48.696;2.114;2022-11-13T13:31:52;100032.56;;;13.45;100.00
12536;BME280;6334;48.696;2.114;2022-11-13T13:35:03;100048.95;;;13.50;100.00
12536;BME280;6334;48.696;2.114;2022-11-13T13:38:10;100048.70;;;13.51;100.00
12536;BME280;6334;48.696;2.114;2022-11-13T13:47:16;100043.73;;;13.58;100.00
12536;BME280;6334;48.696;2.114;2022-11-13T13:50:07;100044.30;;;13.58;100.00
12536;BME280;6334;48.696;2.114;2022-11-13T13:53:06;100032.47;;;13.57;100.00
12536;BME280;6334;48.696;2.114;2022-11-13T13:56:04;100037.41;;;13.69;100.00
12536;BME280;6334;48.696;2.114;2022-11-13T13:59:02;100030.53;;;13.77;100.00
12536;BME280;6334;48.696;2.114;2022-11-13T14:02:13;100027.70;;;13.73;100.00
12536;BME280;6334;48.696;2.114;2022-11-13T14:05:26;100017.81;;;13.87;100.00
12536;BME280;6334;48.696;2.114;2022-11-13T14:08:24;100009.23;;;13.83;100.00
12536;BME280;6334;48.696;2.114;2022-11-13T14:11:23;100020.08;;;13.89;100.00
12536;BME280;6334;48.696;2.114;2022-11-13T14:14:24;100015.03;;;13.93;100.00
12536;BME280;6334;48.696;2.114;2022-11-13T14:17:23;100014.14;;;13.90;100.00
12536;BME280;6334;48.696;2.114;2022-11-13T14:20:21;100005.38;;;13.90;100.00
12536;BME280;6334;48.696;2.114;2022-11-13T14:23:27;100000.29;;;13.92;100.00
12536;BME280;6334;48.696;2.114;2022-11-13T14:26:24;99986.55;;;13.92;100.00
12536;BME280;6334;48.696;2.114;2022-11-13T14:29:36;99990.48;;;14.00;100.00
12536;BME280;6334;48.696;2.114;2022-11-13T14:32:38;99989.18;;;14.01;100.00
12536;BME280;6334;48.696;2.114;2022-11-13T14:35:34;99984.61;;;13.94;100.00
12536;BME280;6334;48.696;2.114;2022-11-13T14:38:34;99983.17;;;14.03;100.00
12536;BME280;6334;48.696;2.114;2022-11-13T14:41:44;99983.36;;;13.99;100.00
12536;BME280;6334;48.696;2.114;2022-11-13T14:44:35;99984.38;;;13.97;100.00
12536;BME280;6334;48.696;2.114;2022-11-13T14:47:33;99982.47;;;14.03;100.00
12536;BME280;6334;48.696;2.114;2022-11-13T14:50:35;99971.37;;;14.01;100.00
12536;BME280;6334;48.696;2.114;2022-11-13T14:53:36;99963.03;;;13.99;100.00
12536;BME280;6334;48.696;2.114;2022-11-13T14:56:42;99969.66;;;13.91;100.00
12536;BME280;6334;48.696;2.114;2022-11-13T14:59:43;99969.24;;;13.95;100.00
12536;BME280;6334;48.696;2.114;2022-11-13T15:02:41;99968.05;;;13.85;100.00
12536;BME280;6334;48.696;2.114;2022-11-13T15:05:40;99962.50;;;13.65;100.00
12536;BME280;6334;48.696;2.114;2022-11-13T15:08:38;99961.03;;;13.63;100.00
12536;BME280;6334;48.696;2.114;2022-11-13T15:11:37;99961.43;;;13.69;100.00
12536;BME280;6334;48.696;2.114;2022-11-13T15:14:38;99951.61;;;13.52;100.00
12536;BME280;6334;48.696;2.114;2022-11-13T15:17:36;99954.06;;;13.60;100.00
12536;BME280;6334;48.696;2.114;2022-11-13T15:20:34;99945.59;;;13.58;100.00
12536;BME280;6334;48.696;2.114;2022-11-13T15:23:32;99951.52;;;13.51;100.00
12536;BME280;6334;48.696;2.114;2022-11-13T15:26:32;99943.20;;;13.55;100.00
12536;BME280;6334;48.696;2.114;2022-11-13T15:30:17;99936.20;;;13.48;100.00
12536;BME280;6334;48.696;2.114;2022-11-13T15:32:47;99939.91;;;13.46;100.00
12536;BME280;6334;48.696;2.114;2022-11-13T15:35:18;99936.91;;;13.54;100.00
12536;BME280;6334;48.696;2.114;2022-11-13T15:38:02;99935.48;;;13.40;100.00
12536;BME280;6334;48.696;2.114;2022-11-13T15:40:33;99932.80;;;13.43;100.00
12536;BME280;6334;48.696;2.114;2022-11-13T15:43:02;99927.67;;;13.43;100.00
12536;BME280;6334;48.696;2.114;2022-11-13T15:45:34;99924.19;;;13.50;100.00
12536;BME280;6334;48.696;2.114;2022-11-13T15:48:04;99918.76;;;13.53;100.00
12536;BME280;6334;48.696;2.114;2022-11-13T15:50:34;99913.83;;;13.53;100.00
12536;BME280;6334;48.696;2.114;2022-11-13T15:53:04;99912.51;;;13.53;100.00
12536;BME280;6334;48.696;2.114;2022-11-13T15:55:35;99908.64;;;13.39;100.00
12536;BME280;6334;48.696;2.114;2022-11-13T15:58:09;99908.10;;;13.34;100.00
12536;BME280;6334;48.696;2.114;2022-11-13T16:00:47;99914.67;;;13.41;100.00
12536;BME280;6334;48.696;2.114;2022-11-13T16:03:18;99903.59;;;13.41;100.00
12536;BME280;6334;48.696;2.114;2022-11-13T16:05:50;99900.87;;;13.39;100.00
12536;BME280;6334;48.696;2.114;2022-11-13T16:08:19;99843.16;;;12.87;100.00
12536;BME280;6334;48.696;2.114;2022-11-13T16:10:49;99841.91;;;12.87;100.00
12536;BME280;6334;48.696;2.114;2022-11-13T16:13:19;99899.39;;;13.18;100.00
12536;BME280;6334;48.696;2.114;2022-11-13T16:15:50;99896.92;;;12.99;100.00
12536;BME280;6334;48.696;2.114;2022-11-13T16:18:23;99900.02;;;13.02;100.00
12536;BME280;6334;48.696;2.114;2022-11-13T16:20:54;99895.22;;;13.00;100.00
12536;BME280;6334;48.696;2.114;2022-11-13T16:23:23;99892.71;;;12.87;100.00
12536;BME280;6334;48.696;2.114;2022-11-13T16:25:53;99894.06;;;12.54;100.00
12536;BME280;6334;48.696;2.114;2022-11-13T16:28:23;99888.05;;;12.74;100.00
12536;BME280;6334;48.696;2.114;2022-11-13T16:30:54;99885.02;;;12.68;100.00
12536;BME280;6334;48.696;2.114;2022-11-13T16:33:24;99883.32;;;12.56;100.00
12536;BME280;6334;48.696;2.114;2022-11-13T16:35:55;99876.63;;;12.48;100.00
12536;BME280;6334;48.696;2.114;2022-11-13T16:38:25;99876.00;;;12.51;100.00
12536;BME280;6334;48.696;2.114;2022-11-13T16:40:56;99881.58;;;12.59;100.00
12536;BME280;6334;48.696;2.114;2022-11-13T16:43:26;99880.33;;;12.55;100.00
12536;BME280;6334;48.696;2.114;2022-11-13T16:45:58;99884.14;;;12.53;100.00
12536;BME280;6334;48.696;2.114;2022-11-13T16:48:27;99878.03;;;12.56;100.00